Terminal Aerodrome Forecast
Issued by NWS Springfield, MO

Home | Current Version | Previous Version | Text Only | Print | Product List | Glossary On
Versions: 1 2 3 4 5 6 7 8 9 10 11 12 13 14 15 16
000
FTUS43 KSGF 280500
TAFSGF
TAF
KSGF 280520Z 2806/2906 VRB04KT P6SM FEW200
     FM281400 24009KT P6SM SKC
     FM281800 24011G18KT P6SM FEW040 SCT250
     FM290000 23006KT P6SM SCT080 PROB30 2901/2906 5SM -TSRA BR
      BKN050CB=

USA.gov is the U.S. government's official web portal to all federal, state and local government web resources and services.